Time;durP1;ratioP1;P1;durP2;ratioP2;P2;SDS_P1;SDS_P2;PMS_P1;PMS_P2;Temp;Humidity;BMP_temperature;BMP_pressure;BME280_temperature;BME280_humidity;BME280_pressure;Samples;Min_cycle;Max_cycle;Signal;HPM_P1;HPM_P2
2020/01/19 00:02:56;;;;;;;3.10;2.78;;;;;;;19.66;39.99;101876.45;;;;-46
2020/01/19 00:15:09;;;;;;;2.93;2.60;;;;;;;19.59;40.00;101892.61;;;;-46
2020/01/19 00:17:56;;;;;;;2.79;2.51;;;;;;;19.57;39.98;101900.87;;;;-46
2020/01/19 00:20:56;;;;;;;2.72;2.52;;;;;;;19.56;39.91;101903.03;;;;-45
2020/01/19 00:23:56;;;;;;;2.87;2.60;;;;;;;19.54;39.96;101902.23;;;;-46
2020/01/19 00:26:56;;;;;;;3.26;2.83;;;;;;;19.52;39.91;101907.07;;;;-46
2020/01/19 00:29:56;;;;;;;2.84;2.57;;;;;;;19.51;39.86;101912.02;;;;-48
2020/01/19 00:32:56;;;;;;;3.80;2.71;;;;;;;19.49;39.95;101910.39;;;;-46
2020/01/19 00:35:56;;;;;;;2.90;2.59;;;;;;;19.47;39.97;101912.70;;;;-46
2020/01/19 00:38:56;;;;;;;3.06;2.78;;;;;;;19.46;39.99;101918.94;;;;-46
2020/01/19 00:41:56;;;;;;;2.95;2.64;;;;;;;19.43;40.02;101921.91;;;;-46
2020/01/19 00:44:56;;;;;;;3.17;2.60;;;;;;;19.42;40.03;101923.30;;;;-46
2020/01/19 00:47:56;;;;;;;2.99;2.73;;;;;;;19.41;39.95;101925.30;;;;-45
2020/01/19 00:50:56;;;;;;;3.01;2.67;;;;;;;19.39;39.99;101923.16;;;;-46
2020/01/19 00:53:56;;;;;;;2.81;2.61;;;;;;;19.38;39.96;101921.86;;;;-46
2020/01/19 00:56:56;;;;;;;2.98;2.70;;;;;;;19.36;40.01;101920.94;;;;-45
2020/01/19 00:59:56;;;;;;;3.15;2.73;;;;;;;19.35;40.02;101927.02;;;;-48
2020/01/19 01:02:56;;;;;;;2.87;2.65;;;;;;;19.34;40.00;101932.23;;;;-46
2020/01/19 01:05:56;;;;;;;2.80;2.59;;;;;;;19.32;40.06;101932.72;;;;-46
2020/01/19 01:08:56;;;;;;;2.91;2.59;;;;;;;19.31;40.00;101930.69;;;;-46
2020/01/19 01:11:56;;;;;;;2.74;2.53;;;;;;;19.29;40.01;101934.08;;;;-46
2020/01/19 01:14:56;;;;;;;2.84;2.64;;;;;;;19.27;40.04;101937.58;;;;-45
2020/01/19 01:17:56;;;;;;;3.21;2.73;;;;;;;19.26;40.12;101945.92;;;;-46
2020/01/19 01:20:56;;;;;;;2.98;2.66;;;;;;;19.24;40.03;101946.24;;;;-46
2020/01/19 01:23:56;;;;;;;2.98;2.68;;;;;;;19.23;40.11;101950.92;;;;-46
2020/01/19 01:26:56;;;;;;;2.89;2.58;;;;;;;19.22;40.05;101955.21;;;;-47
2020/01/19 01:29:56;;;;;;;3.09;2.79;;;;;;;19.21;40.10;101962.16;;;;-46
2020/01/19 01:32:56;;;;;;;2.89;2.61;;;;;;;19.20;40.13;101964.61;;;;-46
2020/01/19 01:35:56;;;;;;;3.04;2.75;;;;;;;19.18;40.06;101969.77;;;;-46
2020/01/19 01:38:56;;;;;;;2.98;2.73;;;;;;;19.17;40.09;101967.69;;;;-46
2020/01/19 01:41:56;;;;;;;2.97;2.61;;;;;;;19.15;40.13;101966.81;;;;-46
2020/01/19 01:44:56;;;;;;;3.16;2.86;;;;;;;19.15;40.12;101972.00;;;;-46
2020/01/19 01:47:56;;;;;;;2.70;2.50;;;;;;;19.13;40.12;101973.88;;;;-46
2020/01/19 01:50:56;;;;;;;2.86;2.63;;;;;;;19.12;40.06;101973.16;;;;-46
2020/01/19 01:53:56;;;;;;;2.90;2.69;;;;;;;19.11;40.13;101975.10;;;;-46
2020/01/19 01:56:56;;;;;;;2.86;2.60;;;;;;;19.10;40.11;101976.09;;;;-46
2020/01/19 01:59:56;;;;;;;3.05;2.75;;;;;;;19.09;40.14;101981.30;;;;-46
2020/01/19 02:06:00;;;;;;;2.89;2.69;;;;;;;19.06;40.15;101977.81;;;;-46
2020/01/19 02:09:03;;;;;;;2.88;2.67;;;;;;;19.05;40.14;101984.33;;;;-46
2020/01/19 02:12:09;;;;;;;3.08;2.78;;;;;;;19.04;40.12;101983.09;;;;-45
2020/01/19 02:14:59;;;;;;;2.85;2.63;;;;;;;19.03;40.13;101987.41;;;;-46
2020/01/19 02:17:56;;;;;;;2.77;2.56;;;;;;;19.02;40.14;101989.48;;;;-46
2020/01/19 02:20:56;;;;;;;3.19;2.68;;;;;;;19.01;40.14;101986.55;;;;-46
2020/01/19 02:23:56;;;;;;;2.70;2.50;;;;;;;19.00;40.10;101988.65;;;;-45
2020/01/19 02:26:56;;;;;;;2.81;2.52;;;;;;;18.98;40.13;101994.44;;;;-46
2020/01/19 02:29:56;;;;;;;2.94;2.70;;;;;;;18.98;40.12;102001.98;;;;-45
2020/01/19 02:32:56;;;;;;;3.03;2.73;;;;;;;18.96;40.15;101999.27;;;;-46
2020/01/19 02:35:56;;;;;;;3.11;2.81;;;;;;;18.97;40.15;101996.36;;;;-46
2020/01/19 02:38:56;;;;;;;2.81;2.61;;;;;;;18.95;40.16;101996.55;;;;-45
2020/01/19 02:41:56;;;;;;;2.79;2.59;;;;;;;18.93;40.19;101995.97;;;;-46
2020/01/19 02:44:56;;;;;;;3.02;2.78;;;;;;;18.92;40.14;101993.29;;;;-46
2020/01/19 02:47:56;;;;;;;3.19;2.89;;;;;;;18.92;40.16;101993.88;;;;-45
2020/01/19 02:50:56;;;;;;;3.14;2.75;;;;;;;18.91;40.17;102002.91;;;;-46
2020/01/19 02:53:56;;;;;;;3.29;2.90;;;;;;;18.90;40.20;102000.72;;;;-46
2020/01/19 02:56:56;;;;;;;2.72;2.52;;;;;;;18.89;40.19;102001.82;;;;-46
2020/01/19 02:59:56;;;;;;;2.76;2.56;;;;;;;18.88;40.19;102004.43;;;;-46
2020/01/19 03:02:56;;;;;;;2.89;2.69;;;;;;;18.87;40.09;102009.72;;;;-46
2020/01/19 03:05:56;;;;;;;3.18;2.85;;;;;;;18.86;40.17;102014.66;;;;-45
2020/01/19 03:08:56;;;;;;;2.73;2.49;;;;;;;18.85;40.19;102010.74;;;;-45
2020/01/19 03:11:56;;;;;;;2.90;2.67;;;;;;;18.84;40.18;102013.73;;;;-46
2020/01/19 03:14:56;;;;;;;2.92;2.62;;;;;;;18.83;40.16;102013.61;;;;-50
2020/01/19 03:17:56;;;;;;;2.90;2.60;;;;;;;18.82;40.20;102022.07;;;;-49
2020/01/19 03:20:56;;;;;;;2.88;2.63;;;;;;;18.81;40.20;102021.89;;;;-51
2020/01/19 03:23:56;;;;;;;2.85;2.63;;;;;;;18.80;40.20;102023.94;;;;-50
2020/01/19 03:26:56;;;;;;;3.14;2.84;;;;;;;18.80;40.17;102028.41;;;;-50
2020/01/19 03:29:56;;;;;;;3.15;2.85;;;;;;;18.79;40.17;102030.27;;;;-50
2020/01/19 03:32:56;;;;;;;3.05;2.75;;;;;;;18.78;40.16;102031.36;;;;-50
2020/01/19 03:35:56;;;;;;;2.69;2.49;;;;;;;18.76;40.20;102035.20;;;;-50
2020/01/19 03:38:56;;;;;;;2.89;2.60;;;;;;;18.76;40.16;102039.59;;;;-51
2020/01/19 03:41:56;;;;;;;3.03;2.73;;;;;;;18.75;40.22;102043.77;;;;-50
2020/01/19 03:44:56;;;;;;;2.79;2.59;;;;;;;18.74;40.17;102041.53;;;;-50
2020/01/19 03:47:56;;;;;;;2.82;2.51;;;;;;;18.74;40.20;102046.80;;;;-50
2020/01/19 03:50:56;;;;;;;3.13;2.83;;;;;;;18.73;40.24;102046.53;;;;-50
2020/01/19 03:53:59;;;;;;;2.81;2.60;;;;;;;18.72;40.16;102054.19;;;;-51
2020/01/19 03:57:05;;;;;;;3.10;2.72;;;;;;;18.72;40.17;102058.11;;;;-50
2020/01/19 04:00:01;;;;;;;2.87;2.63;;;;;;;18.71;40.19;102055.06;;;;-49
2020/01/19 04:03:02;;;;;;;3.17;2.87;;;;;;;18.70;40.19;102055.33;;;;-50
2020/01/19 04:05:56;;;;;;;2.86;2.62;;;;;;;18.69;40.22;102059.16;;;;-50
2020/01/19 04:08:56;;;;;;;2.92;2.65;;;;;;;18.69;40.21;102062.00;;;;-50
2020/01/19 04:11:56;;;;;;;2.92;2.71;;;;;;;18.67;40.21;102058.70;;;;-50
2020/01/19 04:14:56;;;;;;;2.98;2.69;;;;;;;18.66;40.24;102054.05;;;;-50
2020/01/19 04:17:56;;;;;;;2.62;2.42;;;;;;;18.66;40.24;102059.97;;;;-50
2020/01/19 04:20:56;;;;;;;2.81;2.60;;;;;;;18.65;40.20;102066.41;;;;-51
2020/01/19 04:23:56;;;;;;;3.05;2.74;;;;;;;18.64;40.23;102069.30;;;;-50
2020/01/19 04:26:56;;;;;;;2.79;2.59;;;;;;;18.63;40.21;102075.92;;;;-50
2020/01/19 04:29:56;;;;;;;2.85;2.65;;;;;;;18.63;40.20;102075.34;;;;-50
2020/01/19 04:32:56;;;;;;;2.83;2.63;;;;;;;18.63;40.20;102072.39;;;;-50
2020/01/19 04:35:56;;;;;;;2.70;2.50;;;;;;;18.62;40.24;102064.95;;;;-50
2020/01/19 04:38:56;;;;;;;2.90;2.46;;;;;;;18.60;40.26;102067.31;;;;-50
2020/01/19 04:41:56;;;;;;;3.06;2.73;;;;;;;18.61;40.28;102070.56;;;;-50
2020/01/19 04:44:57;;;;;;;2.91;2.61;;;;;;;18.61;40.31;102070.63;;;;-50
2020/01/19 04:48:03;;;;;;;2.79;2.51;;;;;;;18.62;40.35;102076.05;;;;-50
2020/01/19 04:51:03;;;;;;;2.79;2.59;;;;;;;18.63;40.33;102087.11;;;;-50
2020/01/19 04:54:13;;;;;;;2.67;2.47;;;;;;;18.63;40.30;102087.47;;;;-50
2020/01/19 04:56:57;;;;;;;2.77;2.57;;;;;;;18.66;40.24;102090.92;;;;-50
2020/01/19 04:59:56;;;;;;;2.81;2.61;;;;;;;18.68;40.38;102096.52;;;;-51
2020/01/19 05:02:56;;;;;;;2.64;2.44;;;;;;;18.70;40.44;102095.52;;;;-51
2020/01/19 05:05:56;;;;;;;2.60;2.40;;;;;;;18.73;40.38;102097.08;;;;-50
2020/01/19 05:08:56;;;;;;;2.67;2.47;;;;;;;18.78;40.44;102105.03;;;;-51
2020/01/19 05:11:56;;;;;;;2.87;2.46;;;;;;;18.82;40.37;102112.30;;;;-50
2020/01/19 05:14:56;;;;;;;2.58;2.38;;;;;;;18.85;40.44;102119.16;;;;-50
2020/01/19 05:17:56;;;;;;;2.59;2.39;;;;;;;18.90;40.44;102121.87;;;;-50
2020/01/19 05:20:56;;;;;;;2.63;2.43;;;;;;;18.94;40.45;102125.41;;;;-51
2020/01/19 05:23:56;;;;;;;2.67;2.47;;;;;;;18.97;40.49;102129.60;;;;-50
2020/01/19 05:26:58;;;;;;;2.51;2.23;;;;;;;19.02;40.46;102127.79;;;;-50
2020/01/19 05:29:56;;;;;;;2.60;2.40;;;;;;;19.06;40.44;102127.36;;;;-50
2020/01/19 05:33:00;;;;;;;2.57;2.37;;;;;;;19.11;40.46;102128.73;;;;-51
2020/01/19 05:35:59;;;;;;;2.59;2.39;;;;;;;19.15;40.50;102134.86;;;;-49
2020/01/19 05:38:56;;;;;;;2.51;2.31;;;;;;;19.18;40.51;102137.98;;;;-50
2020/01/19 05:41:56;;;;;;;2.57;2.37;;;;;;;19.21;40.48;102142.01;;;;-51
2020/01/19 05:44:56;;;;;;;2.67;2.39;;;;;;;19.25;40.50;102147.55;;;;-50
2020/01/19 05:47:56;;;;;;;2.53;2.33;;;;;;;19.29;40.48;102147.48;;;;-50
2020/01/19 05:50:56;;;;;;;2.59;2.39;;;;;;;19.32;40.54;102148.54;;;;-50
2020/01/19 05:53:56;;;;;;;2.50;2.30;;;;;;;19.37;40.46;102155.34;;;;-50
2020/01/19 05:56:56;;;;;;;2.54;2.34;;;;;;;19.41;40.45;102153.50;;;;-51
2020/01/19 05:59:56;;;;;;;2.50;2.29;;;;;;;19.43;40.46;102153.93;;;;-50
2020/01/19 06:02:56;;;;;;;2.68;2.35;;;;;;;19.46;40.45;102155.65;;;;-50
2020/01/19 06:05:56;;;;;;;2.63;2.43;;;;;;;19.49;40.44;102161.39;;;;-49
2020/01/19 06:08:56;;;;;;;2.39;2.19;;;;;;;19.51;40.39;102162.66;;;;-50
2020/01/19 06:11:56;;;;;;;2.68;2.45;;;;;;;19.54;40.43;102160.58;;;;-50
2020/01/19 06:14:56;;;;;;;2.43;2.23;;;;;;;19.58;40.37;102158.87;;;;-50
2020/01/19 06:17:56;;;;;;;2.52;2.32;;;;;;;19.63;40.29;102159.44;;;;-50
2020/01/19 06:20:56;;;;;;;2.51;2.31;;;;;;;19.65;40.27;102157.23;;;;-50
2020/01/19 06:23:56;;;;;;;2.50;2.30;;;;;;;19.67;40.25;102156.72;;;;-50
2020/01/19 06:26:56;;;;;;;2.31;2.11;;;;;;;19.69;40.24;102154.73;;;;-50
2020/01/19 06:33:06;;;;;;;2.41;2.21;;;;;;;19.74;40.22;102157.56;;;;-50
2020/01/19 06:36:04;;;;;;;2.91;2.45;;;;;;;19.78;40.22;102164.77;;;;-49
2020/01/19 06:39:10;;;;;;;2.51;2.31;;;;;;;19.81;40.18;102170.86;;;;-50
2020/01/19 06:41:56;;;;;;;2.45;2.25;;;;;;;19.85;40.10;102179.36;;;;-50
2020/01/19 06:44:56;;;;;;;2.59;2.09;;;;;;;19.87;40.12;102185.81;;;;-50
2020/01/19 06:47:56;;;;;;;2.37;2.17;;;;;;;19.89;40.12;102189.34;;;;-50
2020/01/19 06:50:56;;;;;;;2.22;2.02;;;;;;;19.93;39.98;102197.64;;;;-50
2020/01/19 06:53:56;;;;;;;2.48;2.28;;;;;;;19.93;40.05;102199.77;;;;-50
2020/01/19 06:57:08;;;;;;;2.33;2.13;;;;;;;19.94;40.08;102207.83;;;;-50
2020/01/19 07:00:07;;;;;;;2.31;2.11;;;;;;;19.96;40.01;102208.03;;;;-50
2020/01/19 07:02:59;;;;;;;2.39;2.19;;;;;;;19.96;40.07;102206.41;;;;-50
2020/01/19 07:05:56;;;;;;;2.31;2.11;;;;;;;19.98;40.03;102209.15;;;;-50
2020/01/19 07:08:56;;;;;;;2.46;2.26;;;;;;;20.00;39.96;102216.24;;;;-50
2020/01/19 07:11:56;;;;;;;2.51;2.31;;;;;;;20.04;39.82;102221.05;;;;-50
2020/01/19 07:15:00;;;;;;;2.16;1.96;;;;;;;20.03;39.90;102234.06;;;;-50
2020/01/19 07:20:56;;;;;;;2.91;2.18;;;;;;;20.08;39.88;102243.68;;;;-49
2020/01/19 07:23:56;;;;;;;2.25;2.05;;;;;;;20.09;39.85;102247.44;;;;-50
2020/01/19 07:26:56;;;;;;;2.36;2.16;;;;;;;20.10;39.89;102252.04;;;;-50
2020/01/19 07:29:56;;;;;;;2.31;2.11;;;;;;;20.11;39.86;102261.34;;;;-50
2020/01/19 07:32:56;;;;;;;2.66;2.21;;;;;;;20.13;39.77;102268.02;;;;-50
2020/01/19 07:35:56;;;;;;;2.40;2.20;;;;;;;20.13;39.84;102266.18;;;;-50
2020/01/19 07:38:56;;;;;;;2.43;2.22;;;;;;;20.14;39.77;102272.39;;;;-50
2020/01/19 07:41:56;;;;;;;2.43;2.23;;;;;;;20.15;39.83;102278.34;;;;-50
2020/01/19 07:44:56;;;;;;;2.21;2.01;;;;;;;20.16;39.78;102279.60;;;;-50
2020/01/19 07:47:56;;;;;;;2.33;2.13;;;;;;;20.18;39.81;102279.41;;;;-50
2020/01/19 07:50:56;;;;;;;2.40;2.20;;;;;;;20.19;39.78;102287.25;;;;-50
2020/01/19 07:53:56;;;;;;;2.40;2.20;;;;;;;20.20;39.77;102289.06;;;;-50
2020/01/19 07:56:56;;;;;;;2.40;2.20;;;;;;;20.23;39.61;102297.49;;;;-50
2020/01/19 07:59:56;;;;;;;2.41;2.21;;;;;;;20.25;39.66;102300.83;;;;-50
2020/01/19 08:02:56;;;;;;;2.39;2.19;;;;;;;20.24;39.72;102299.58;;;;-50
2020/01/19 08:05:56;;;;;;;2.59;2.39;;;;;;;20.26;39.67;102303.41;;;;-46
2020/01/19 08:08:56;;;;;;;2.39;2.19;;;;;;;20.27;39.61;102312.48;;;;-46
2020/01/19 08:11:56;;;;;;;2.33;2.13;;;;;;;20.31;39.48;102314.78;;;;-46
2020/01/19 08:14:56;;;;;;;2.55;2.35;;;;;;;20.33;39.54;102321.36;;;;-46
2020/01/19 08:17:56;;;;;;;2.41;2.21;;;;;;;20.33;39.58;102323.65;;;;-46
2020/01/19 08:20:56;;;;;;;2.48;2.28;;;;;;;20.33;39.60;102332.56;;;;-46
2020/01/19 08:23:56;;;;;;;2.72;2.37;;;;;;;20.35;39.56;102330.73;;;;-46
2020/01/19 08:26:56;;;;;;;2.54;2.18;;;;;;;20.37;39.56;102337.88;;;;-46
2020/01/19 08:29:56;;;;;;;2.47;2.27;;;;;;;20.39;39.46;102336.33;;;;-46
2020/01/19 08:32:56;;;;;;;2.84;2.11;;;;;;;20.39;39.49;102343.89;;;;-47
2020/01/19 08:35:56;;;;;;;2.49;2.29;;;;;;;20.40;39.52;102349.55;;;;-46
2020/01/19 08:38:56;;;;;;;2.40;2.20;;;;;;;20.40;39.45;102352.86;;;;-46
2020/01/19 08:41:56;;;;;;;2.42;2.22;;;;;;;20.41;39.43;102353.21;;;;-46
2020/01/19 08:44:56;;;;;;;2.29;2.09;;;;;;;20.41;39.46;102358.34;;;;-45
2020/01/19 08:47:56;;;;;;;2.19;1.99;;;;;;;20.41;39.47;102352.66;;;;-46
2020/01/19 08:51:02;;;;;;;2.49;2.29;;;;;;;20.41;39.40;102352.88;;;;-46
2020/01/19 08:54:08;;;;;;;2.17;2.00;;;;;;;20.41;39.42;102362.11;;;;-46
2020/01/19 08:57:10;;;;;;;2.23;2.06;;;;;;;20.40;39.49;102367.02;;;;-46
2020/01/19 09:00:11;;;;;;;2.30;2.10;;;;;;;20.41;39.36;102372.73;;;;-46
2020/01/19 09:02:56;;;;;;;2.31;2.11;;;;;;;20.41;39.42;102377.16;;;;-46
2020/01/19 09:05:56;;;;;;;2.26;2.06;;;;;;;20.39;39.45;102379.98;;;;-46
2020/01/19 09:08:56;;;;;;;2.35;2.12;;;;;;;20.42;39.36;102386.94;;;;-46
2020/01/19 09:11:56;;;;;;;2.87;2.12;;;;;;;20.41;39.29;102389.56;;;;-46
2020/01/19 09:14:56;;;;;;;2.53;2.32;;;;;;;20.41;39.42;102403.48;;;;-46
2020/01/19 09:17:56;;;;;;;2.49;2.29;;;;;;;20.40;39.34;102410.97;;;;-46
2020/01/19 09:20:56;;;;;;;2.35;2.10;;;;;;;20.41;39.33;102422.64;;;;-46
2020/01/19 09:23:56;;;;;;;2.36;2.16;;;;;;;20.41;39.41;102429.86;;;;-46
2020/01/19 09:26:56;;;;;;;2.21;2.01;;;;;;;20.41;39.24;102426.50;;;;-46
2020/01/19 09:29:56;;;;;;;2.31;2.11;;;;;;;20.42;39.35;102427.47;;;;-46
2020/01/19 09:32:56;;;;;;;2.55;2.20;;;;;;;20.43;39.29;102431.16;;;;-46
2020/01/19 09:35:56;;;;;;;2.32;2.12;;;;;;;20.44;39.35;102432.25;;;;-46
2020/01/19 09:38:56;;;;;;;2.58;2.09;;;;;;;20.45;39.19;102437.70;;;;-46
2020/01/19 09:41:57;;;;;;;3.05;2.10;;;;;;;20.43;39.92;102440.30;;;;-43
2020/01/19 09:44:56;;;;;;;2.96;2.53;;;;;;;20.39;38.79;102439.54;;;;-50
2020/01/19 09:47:56;;;;;;;4.13;2.75;;;;;;;20.36;38.24;102441.39;;;;-48
2020/01/19 09:50:56;;;;;;;5.11;2.87;;;;;;;20.34;38.07;102443.54;;;;-51
2020/01/19 09:53:56;;;;;;;3.42;2.65;;;;;;;20.39;38.54;102454.33;;;;-49
2020/01/19 09:56:56;;;;;;;7.40;2.51;;;;;;;20.45;39.08;102460.19;;;;-47
2020/01/19 09:59:56;;;;;;;6.24;2.71;;;;;;;20.45;38.85;102459.67;;;;-47
2020/01/19 10:02:56;;;;;;;3.61;2.48;;;;;;;20.49;39.02;102465.13;;;;-44
2020/01/19 10:05:56;;;;;;;5.68;2.40;;;;;;;20.49;39.43;102467.36;;;;-46
2020/01/19 10:08:56;;;;;;;2.79;2.33;;;;;;;20.51;39.38;102469.08;;;;-45
2020/01/19 10:11:56;;;;;;;4.29;2.45;;;;;;;20.52;39.50;102475.25;;;;-47
2020/01/19 10:14:56;;;;;;;2.66;2.25;;;;;;;20.54;39.51;102478.52;;;;-46
2020/01/19 10:17:56;;;;;;;4.32;2.42;;;;;;;20.56;39.40;102481.71;;;;-46
2020/01/19 10:20:56;;;;;;;3.19;2.33;;;;;;;20.58;39.46;102485.86;;;;-46
2020/01/19 10:23:56;;;;;;;3.73;2.33;;;;;;;20.59;39.51;102487.28;;;;-46
2020/01/19 10:26:56;;;;;;;2.75;2.20;;;;;;;20.61;39.45;102492.74;;;;-45
2020/01/19 10:29:56;;;;;;;2.51;2.23;;;;;;;20.62;39.47;102499.03;;;;-44
2020/01/19 10:32:56;;;;;;;3.01;2.33;;;;;;;20.62;39.48;102497.57;;;;-44
2020/01/19 10:35:56;;;;;;;2.73;2.29;;;;;;;20.64;39.56;102499.81;;;;-44
2020/01/19 10:38:56;;;;;;;3.78;2.27;;;;;;;20.66;39.50;102505.30;;;;-45
2020/01/19 10:41:57;;;;;;;6.75;2.23;;;;;;;20.65;39.35;102504.84;;;;-48
2020/01/19 10:45:07;;;;;;;7.29;2.41;;;;;;;20.66;39.36;102506.27;;;;-44
2020/01/19 10:48:08;;;;;;;4.49;2.16;;;;;;;20.68;39.48;102506.45;;;;-44
2020/01/19 10:51:05;;;;;;;2.72;2.19;;;;;;;20.68;39.51;102504.23;;;;-45
2020/01/19 10:53:56;;;;;;;3.06;2.21;;;;;;;20.71;39.40;102502.92;;;;-48
2020/01/19 10:56:56;;;;;;;4.11;2.18;;;;;;;20.72;39.48;102503.02;;;;-44
2020/01/19 10:59:56;;;;;;;4.29;2.27;;;;;;;20.73;39.54;102500.45;;;;-47
2020/01/19 11:02:56;;;;;;;4.35;2.31;;;;;;;20.75;39.48;102500.20;;;;-44
2020/01/19 11:05:56;;;;;;;3.01;2.27;;;;;;;20.78;39.44;102503.31;;;;-47
2020/01/19 11:08:56;;;;;;;9.67;2.35;;;;;;;20.76;39.31;102509.01;;;;-46
2020/01/19 11:11:56;;;;;;;6.27;2.23;;;;;;;20.80;39.33;102510.12;;;;-46
2020/01/19 11:14:56;;;;;;;6.19;2.31;;;;;;;20.80;39.41;102507.54;;;;-45
2020/01/19 11:17:56;;;;;;;2.49;2.24;;;;;;;20.81;39.47;102514.05;;;;-45
2020/01/19 11:20:56;;;;;;;3.37;2.27;;;;;;;20.84;39.46;102509.45;;;;-46
2020/01/19 11:23:56;;;;;;;2.93;2.18;;;;;;;20.82;39.41;102514.84;;;;-49
2020/01/19 11:26:57;;;;;;;5.50;2.26;;;;;;;20.87;40.17;102516.16;;;;-49
2020/01/19 11:29:56;;;;;;;6.59;2.43;;;;;;;20.88;39.37;102516.17;;;;-49
2020/01/19 11:32:56;;;;;;;5.20;2.20;;;;;;;20.86;39.30;102522.03;;;;-49
2020/01/19 11:35:56;;;;;;;3.43;2.17;;;;;;;20.85;39.32;102521.78;;;;-49
2020/01/19 11:38:56;;;;;;;4.00;2.09;;;;;;;20.84;39.26;102519.08;;;;-52
2020/01/19 11:41:56;;;;;;;4.11;2.01;;;;;;;20.85;39.24;102518.25;;;;-52
2020/01/19 11:45:16;;;;;;;4.58;2.30;;;;;;;20.85;39.25;102519.94;;;;-52
2020/01/19 11:47:56;;;;;;;4.01;2.09;;;;;;;20.84;39.28;102524.91;;;;-52
2020/01/19 11:52:16;;;;;;;3.55;2.11;;;;;;;20.85;39.28;102526.32;;;;-52
2020/01/19 11:54:56;;;;;;;3.97;2.03;;;;;;;20.85;39.13;102525.81;;;;-52
2020/01/19 11:57:56;;;;;;;4.47;2.19;;;;;;;20.85;39.20;102521.89;;;;-52
2020/01/19 12:01:00;;;;;;;2.84;2.04;;;;;;;20.86;39.14;102524.04;;;;-52
2020/01/19 12:03:56;;;;;;;2.85;1.92;;;;;;;20.84;39.20;102528.31;;;;-52
2020/01/19 12:06:56;;;;;;;2.92;1.99;;;;;;;20.84;39.24;102524.96;;;;-52
2020/01/19 12:09:56;;;;;;;2.57;2.06;;;;;;;20.88;39.19;102525.36;;;;-51
2020/01/19 12:12:56;;;;;;;3.88;2.17;;;;;;;20.90;39.46;102533.70;;;;-51
2020/01/19 12:15:56;;;;;;;2.98;1.97;;;;;;;20.93;39.63;102530.37;;;;-52
2020/01/19 12:18:56;;;;;;;2.93;2.00;;;;;;;20.96;39.64;102525.50;;;;-50
2020/01/19 12:21:56;;;;;;;2.91;1.97;;;;;;;20.98;39.77;102522.57;;;;-50
2020/01/19 12:24:56;;;;;;;2.21;1.92;;;;;;;21.04;39.94;102521.37;;;;-52
2020/01/19 12:27:56;;;;;;;3.21;2.09;;;;;;;21.04;39.95;102527.98;;;;-50
2020/01/19 12:43:58;;;;;;;2.22;1.98;;;;;;;21.14;40.37;102533.22;;;;-50
2020/01/19 12:46:56;;;;;;;4.60;1.95;;;;;;;21.14;40.23;102531.62;;;;-49
2020/01/19 12:49:56;;;;;;;3.15;2.15;;;;;;;21.17;40.47;102530.30;;;;-49
2020/01/19 12:52:56;;;;;;;4.73;2.19;;;;;;;21.15;39.83;102537.44;;;;-49
2020/01/19 12:55:56;;;;;;;2.39;1.95;;;;;;;21.14;40.17;102543.76;;;;-50
2020/01/19 12:58:56;;;;;;;3.03;2.03;;;;;;;21.14;40.28;102542.69;;;;-48
2020/01/19 13:01:56;;;;;;;4.02;2.11;;;;;;;21.14;40.70;102548.30;;;;-49
2020/01/19 13:04:56;;;;;;;7.66;2.09;;;;;;;21.17;41.34;102544.81;;;;-50
2020/01/19 13:07:56;;;;;;;7.44;2.21;;;;;;;21.19;41.85;102548.25;;;;-49
2020/01/19 13:10:56;;;;;;;3.77;2.00;;;;;;;21.21;42.58;102547.74;;;;-51
2020/01/19 13:13:56;;;;;;;5.47;2.02;;;;;;;21.21;42.41;102554.27;;;;-52
2020/01/19 13:16:57;;;;;;;8.34;2.08;;;;;;;21.22;42.64;102550.88;;;;-46
2020/01/19 13:19:56;;;;;;;3.73;2.06;;;;;;;21.21;41.77;102552.34;;;;-44
2020/01/19 13:22:56;;;;;;;4.87;2.00;;;;;;;21.23;42.33;102553.98;;;;-45
2020/01/19 13:25:56;;;;;;;9.48;2.11;;;;;;;21.24;42.02;102556.34;;;;-47
2020/01/19 13:28:56;;;;;;;4.33;2.11;;;;;;;21.23;41.49;102558.13;;;;-45
2020/01/19 13:31:55;;;;;;;4.08;1.92;;;;;;;21.23;41.25;102558.53;;;;-45
2020/01/19 13:34:56;;;;;;;3.40;1.87;;;;;;;21.23;41.08;102562.66;;;;-45
2020/01/19 13:37:56;;;;;;;3.38;1.93;;;;;;;21.22;40.81;102565.44;;;;-45
2020/01/19 13:40:56;;;;;;;3.95;1.97;;;;;;;21.23;40.81;102568.77;;;;-45
2020/01/19 13:43:56;;;;;;;2.98;1.85;;;;;;;21.23;40.84;102567.19;;;;-45
2020/01/19 13:46:56;;;;;;;4.71;2.11;;;;;;;21.21;40.46;102570.66;;;;-53
2020/01/19 13:49:56;;;;;;;4.45;1.96;;;;;;;21.20;40.53;102575.23;;;;-43
2020/01/19 13:52:56;;;;;;;2.79;1.90;;;;;;;21.20;40.40;102576.13;;;;-43
2020/01/19 13:55:56;;;;;;;2.27;1.83;;;;;;;21.20;40.34;102568.06;;;;-50
2020/01/19 13:58:56;;;;;;;4.82;1.93;;;;;;;21.19;40.12;102576.88;;;;-50
2020/01/19 14:01:56;;;;;;;1.97;1.77;;;;;;;21.17;40.02;102580.23;;;;-50
2020/01/19 14:04:56;;;;;;;2.36;1.82;;;;;;;21.17;39.98;102582.90;;;;-50
2020/01/19 14:07:56;;;;;;;3.56;1.80;;;;;;;21.15;39.88;102584.94;;;;-50
2020/01/19 14:10:56;;;;;;;3.19;1.84;;;;;;;21.14;39.89;102584.09;;;;-50
2020/01/19 14:13:56;;;;;;;2.25;1.79;;;;;;;21.14;39.79;102585.38;;;;-50
2020/01/19 14:16:56;;;;;;;2.67;1.81;;;;;;;21.13;39.82;102587.71;;;;-50
2020/01/19 14:19:56;;;;;;;1.91;1.70;;;;;;;21.11;39.83;102588.69;;;;-50
2020/01/19 14:22:56;;;;;;;3.39;1.81;;;;;;;21.11;39.73;102594.59;;;;-50
2020/01/19 14:26:19;;;;;;;2.37;1.70;;;;;;;21.10;39.68;102591.25;;;;-50
2020/01/19 14:34:59;;;;;;;2.74;1.77;;;;;;;21.08;39.66;102610.37;;;;-50
2020/01/19 14:37:56;;;;;;;2.41;1.67;;;;;;;21.08;39.71;102617.93;;;;-49
2020/01/19 14:40:56;;;;;;;1.97;1.77;;;;;;;21.08;39.56;102619.95;;;;-50
2020/01/19 14:43:56;;;;;;;2.36;1.73;;;;;;;21.06;39.57;102625.41;;;;-51
2020/01/19 14:46:56;;;;;;;3.48;2.15;;;;;;;21.06;38.72;102632.69;;;;-46
2020/01/19 14:49:56;;;;;;;3.46;1.87;;;;;;;21.07;39.18;102637.69;;;;-46
2020/01/19 14:52:56;;;;;;;3.61;2.03;;;;;;;21.11;39.40;102639.44;;;;-49
2020/01/19 14:55:56;;;;;;;2.75;1.92;;;;;;;21.12;39.50;102645.50;;;;-48
2020/01/19 14:58:56;;;;;;;2.67;1.82;;;;;;;21.13;39.71;102645.02;;;;-46
2020/01/19 15:01:56;;;;;;;2.55;1.87;;;;;;;21.13;39.72;102649.01;;;;-45
2020/01/19 15:04:56;;;;;;;3.13;1.85;;;;;;;21.15;39.73;102650.92;;;;-49
2020/01/19 15:07:56;;;;;;;3.25;1.74;;;;;;;21.16;39.65;102651.50;;;;-47
2020/01/19 15:10:56;;;;;;;2.33;1.79;;;;;;;21.18;39.62;102649.70;;;;-48
2020/01/19 15:13:56;;;;;;;2.49;1.64;;;;;;;21.20;39.83;102653.21;;;;-49
2020/01/19 15:16:56;;;;;;;2.91;1.61;;;;;;;21.19;39.71;102651.97;;;;-49
2020/01/19 15:19:56;;;;;;;3.97;1.89;;;;;;;21.21;39.70;102653.77;;;;-48
2020/01/19 15:22:56;;;;;;;2.95;1.60;;;;;;;21.23;39.90;102658.70;;;;-47
2020/01/19 15:25:56;;;;;;;2.96;1.83;;;;;;;21.24;39.82;102663.40;;;;-47
2020/01/19 15:28:56;;;;;;;2.86;1.81;;;;;;;21.24;39.94;102673.22;;;;-49
2020/01/19 15:31:56;;;;;;;1.95;1.75;;;;;;;21.25;39.91;102684.37;;;;-50
2020/01/19 15:34:55;;;;;;;2.27;1.80;;;;;;;21.27;39.95;102689.89;;;;-49
2020/01/19 15:37:56;;;;;;;2.44;1.73;;;;;;;21.27;39.96;102700.05;;;;-46
2020/01/19 15:40:56;;;;;;;2.89;1.91;;;;;;;21.26;39.96;102699.70;;;;-47
2020/01/19 15:43:56;;;;;;;2.07;1.65;;;;;;;21.27;39.98;102698.82;;;;-45
2020/01/19 15:46:56;;;;;;;4.32;1.78;;;;;;;21.30;40.10;102700.11;;;;-48
2020/01/19 15:49:56;;;;;;;3.21;1.73;;;;;;;21.30;39.98;102704.25;;;;-48
2020/01/19 15:52:56;;;;;;;1.60;1.50;;;;;;;21.29;39.99;102708.16;;;;-48
2020/01/19 15:55:55;;;;;;;3.46;1.65;;;;;;;21.31;40.09;102714.35;;;;-48
2020/01/19 15:58:56;;;;;;;2.27;1.76;;;;;;;21.33;40.03;102717.97;;;;-48
2020/01/19 16:01:56;;;;;;;3.06;1.71;;;;;;;21.35;39.98;102728.88;;;;-50
2020/01/19 16:04:56;;;;;;;2.27;1.60;;;;;;;21.36;39.95;102730.58;;;;-49
2020/01/19 16:08:02;;;;;;;1.87;1.67;;;;;;;21.37;39.95;102735.75;;;;-46
2020/01/19 16:11:09;;;;;;;1.91;1.67;;;;;;;21.38;39.92;102745.80;;;;-47
2020/01/19 16:24:56;;;;;;;2.08;1.65;;;;;;;21.38;40.07;102761.71;;;;-48
2020/01/19 16:27:56;;;;;;;1.85;1.54;;;;;;;21.39;40.05;102764.98;;;;-46
2020/01/19 16:30:56;;;;;;;1.67;1.57;;;;;;;21.39;39.99;102771.25;;;;-44
2020/01/19 16:33:56;;;;;;;2.04;1.73;;;;;;;21.41;40.02;102781.48;;;;-46
2020/01/19 16:36:56;;;;;;;4.17;1.50;;;;;;;21.41;40.00;102792.25;;;;-44
2020/01/19 16:39:56;;;;;;;1.95;1.52;;;;;;;21.42;39.95;102795.63;;;;-45
2020/01/19 16:42:56;;;;;;;1.96;1.61;;;;;;;21.44;40.07;102801.77;;;;-43
2020/01/19 16:45:56;;;;;;;1.70;1.60;;;;;;;21.44;40.00;102803.34;;;;-44
2020/01/19 16:48:56;;;;;;;5.29;1.72;;;;;;;21.44;40.03;102806.98;;;;-45
2020/01/19 16:51:56;;;;;;;2.09;1.60;;;;;;;21.44;40.01;102812.53;;;;-45
2020/01/19 16:54:56;;;;;;;3.09;1.64;;;;;;;21.45;40.01;102810.31;;;;-44
2020/01/19 16:57:57;;;;;;;1.61;1.50;;;;;;;21.46;39.99;102816.13;;;;-45
2020/01/19 17:00:56;;;;;;;2.00;1.59;;;;;;;21.47;39.94;102816.73;;;;-46
2020/01/19 17:03:56;;;;;;;1.87;1.53;;;;;;;21.47;40.00;102817.24;;;;-46
2020/01/19 17:06:56;;;;;;;2.32;1.66;;;;;;;21.48;39.94;102825.16;;;;-45
2020/01/19 17:09:56;;;;;;;1.57;1.45;;;;;;;21.48;39.94;102837.09;;;;-45
2020/01/19 17:12:56;;;;;;;2.15;1.59;;;;;;;21.48;39.97;102840.13;;;;-47
2020/01/19 17:15:56;;;;;;;1.81;1.57;;;;;;;21.49;40.04;102842.38;;;;-46
2020/01/19 17:18:56;;;;;;;2.21;1.57;;;;;;;21.50;40.03;102847.95;;;;-47
2020/01/19 17:21:56;;;;;;;1.91;1.57;;;;;;;21.50;39.92;102847.28;;;;-46
2020/01/19 17:24:56;;;;;;;2.55;1.51;;;;;;;21.51;39.98;102855.22;;;;-46
2020/01/19 17:27:56;;;;;;;1.80;1.63;;;;;;;21.52;39.93;102865.39;;;;-47
2020/01/19 17:30:56;;;;;;;1.71;1.60;;;;;;;21.51;39.97;102875.80;;;;-43
2020/01/19 17:33:56;;;;;;;2.11;1.60;;;;;;;21.51;40.06;102879.48;;;;-43